createdAt,value
2018-11-13T00:02:08.274Z,26.73
2018-11-13T00:04:36.463Z,24.87
2018-11-13T00:07:04.659Z,29.90
2018-11-13T00:09:32.827Z,26.90
2018-11-13T00:12:01.043Z,30.53
2018-11-13T00:14:29.256Z,23.53
2018-11-13T00:16:57.430Z,24.30
2018-11-13T00:19:25.602Z,23.53
2018-11-13T00:21:53.800Z,25.37
2018-11-13T00:24:21.971Z,25.33
2018-11-13T00:26:50.155Z,28.97
2018-11-13T00:29:18.345Z,25.03
2018-11-13T00:31:46.566Z,25.00
2018-11-13T00:34:14.764Z,22.70
2018-11-13T00:36:42.991Z,24.83
2018-11-13T00:39:12.988Z,24.30
2018-11-13T00:41:41.271Z,34.03
2018-11-13T00:44:10.154Z,24.23
2018-11-13T00:46:38.742Z,22.93
2018-11-13T00:49:07.118Z,22.87
2018-11-13T00:51:36.061Z,23.30
2018-11-13T00:54:04.242Z,25.50
2018-11-13T00:56:32.411Z,24.10
2018-11-13T00:59:00.590Z,23.43
2018-11-13T01:01:28.809Z,24.20
2018-11-13T01:03:56.990Z,23.47
2018-11-13T01:06:25.171Z,29.77
2018-11-13T01:08:53.387Z,28.17
2018-11-13T01:11:21.580Z,25.47
2018-11-13T01:13:49.811Z,23.43
2018-11-13T01:16:18.031Z,25.03
2018-11-13T01:18:46.920Z,23.40
2018-11-13T01:21:15.096Z,23.87
2018-11-13T01:23:43.297Z,25.23
2018-11-13T01:26:11.455Z,23.17
2018-11-13T01:28:39.635Z,25.47
2018-11-13T01:31:07.852Z,23.40
2018-11-13T01:33:36.035Z,27.60
2018-11-13T01:36:04.255Z,23.40
2018-11-13T01:38:32.437Z,22.67
2018-11-13T01:41:00.631Z,21.40
2018-11-13T01:43:28.847Z,23.13
2018-11-13T01:45:57.028Z,23.17
2018-11-13T01:48:25.209Z,26.23
2018-11-13T01:50:53.421Z,24.30
2018-11-13T01:53:21.644Z,23.40
2018-11-13T01:55:49.846Z,23.73
2018-11-13T01:58:18.073Z,23.40
2018-11-13T02:00:46.274Z,23.10
2018-11-13T02:03:14.471Z,27.00
2018-11-13T02:05:42.663Z,24.30
2018-11-13T02:08:10.862Z,29.80
2018-11-13T02:10:39.085Z,24.03
2018-11-13T02:13:07.294Z,22.53
2018-11-13T02:15:35.502Z,21.37
2018-11-13T02:18:03.706Z,26.00
2018-11-13T02:20:31.891Z,24.87
2018-11-13T02:23:00.116Z,23.43
2018-11-13T02:25:28.355Z,24.47
2018-11-13T02:27:56.547Z,28.30
2018-11-13T02:30:24.792Z,32.60
2018-11-13T02:32:52.995Z,23.10
2018-11-13T02:35:21.278Z,24.70
2018-11-13T02:37:49.436Z,25.77
2018-11-13T02:40:17.630Z,25.40
2018-11-13T02:42:45.848Z,22.50
2018-11-13T02:45:15.963Z,26.87
2018-11-13T02:47:44.171Z,25.00
2018-11-13T02:50:15.115Z,23.30
2018-11-13T02:52:43.310Z,25.77
2018-11-13T02:55:12.031Z,24.37
2018-11-13T02:57:40.714Z,25.87
2018-11-13T03:00:11.399Z,24.50
2018-11-13T03:02:39.590Z,22.97
2018-11-13T03:05:09.711Z,24.97
2018-11-13T03:07:38.238Z,22.47
2018-11-13T03:10:07.881Z,24.83
2018-11-13T03:12:36.112Z,21.53
2018-11-13T03:15:04.339Z,22.13
2018-11-13T03:17:32.534Z,21.13
2018-11-13T03:20:00.728Z,20.90
2018-11-13T03:22:28.948Z,21.00
2018-11-13T03:24:57.143Z,17.97
2018-11-13T03:27:25.335Z,19.90
2018-11-13T03:29:53.564Z,16.37
2018-11-13T03:32:21.751Z,18.40
2018-11-13T03:34:49.959Z,13.67
2018-11-13T03:37:18.186Z,15.00
2018-11-13T03:39:46.382Z,15.47
2018-11-13T03:42:14.580Z,13.43
2018-11-13T03:44:42.812Z,12.93
2018-11-13T03:47:11.012Z,13.07
2018-11-13T03:49:39.211Z,12.37
2018-11-13T03:52:07.421Z,12.53
2018-11-13T03:54:35.644Z,11.83
2018-11-13T03:57:03.810Z,11.83
2018-11-13T03:59:32.095Z,11.97
2018-11-13T04:02:00.267Z,11.47
2018-11-13T04:04:28.450Z,11.53
2018-11-13T04:06:56.626Z,11.10
2018-11-13T04:09:24.831Z,12.67
2018-11-13T04:11:53.006Z,11.23
2018-11-13T04:14:21.571Z,11.57
2018-11-13T04:16:49.734Z,11.73
2018-11-13T04:19:17.904Z,10.67
2018-11-13T04:22:02.373Z,12.07
2018-11-13T04:24:30.547Z,11.97
2018-11-13T04:26:59.024Z,12.37
2018-11-13T04:29:27.210Z,11.77
2018-11-13T04:31:55.375Z,12.57
2018-11-13T04:34:23.534Z,10.83
2018-11-13T04:36:51.719Z,11.63
2018-11-13T04:39:19.896Z,11.03
2018-11-13T04:41:48.063Z,12.67
2018-11-13T04:44:16.238Z,11.53
2018-11-13T04:46:44.583Z,11.03
2018-11-13T04:49:12.742Z,11.07
2018-11-13T04:51:41.080Z,10.60
2018-11-13T04:54:09.181Z,10.57
2018-11-13T04:56:37.387Z,10.40
2018-11-13T04:59:05.592Z,10.27
2018-11-13T05:01:33.755Z,11.30
2018-11-13T05:04:01.924Z,11.07
2018-11-13T05:06:30.091Z,12.37
2018-11-13T05:08:58.288Z,12.40
2018-11-13T05:11:26.463Z,14.73
2018-11-13T05:13:54.619Z,13.13
2018-11-13T05:16:22.794Z,13.67
2018-11-13T05:18:50.954Z,14.93
2018-11-13T05:21:19.163Z,23.73
2018-11-13T05:23:47.343Z,20.97
2018-11-13T05:26:15.544Z,15.40
2018-11-13T05:28:43.711Z,13.57
2018-11-13T05:31:11.883Z,12.60
2018-11-13T05:33:40.129Z,10.90
2018-11-13T05:36:08.357Z,10.07
2018-11-13T05:38:36.545Z,10.33
2018-11-13T05:41:04.717Z,10.70
2018-11-13T05:43:32.916Z,11.67
2018-11-13T05:46:01.392Z,9.57
2018-11-13T05:48:29.855Z,10.47
2018-11-13T05:50:59.082Z,10.87
2018-11-13T05:53:27.247Z,9.47
2018-11-13T05:55:55.445Z,14.80
2018-11-13T05:58:23.629Z,11.47
2018-11-13T06:00:51.811Z,11.50
2018-11-13T06:03:19.988Z,10.10
2018-11-13T06:05:48.332Z,11.00
2018-11-13T06:08:18.347Z,11.13
2018-11-13T06:10:47.090Z,13.50
2018-11-13T06:13:15.477Z,11.20
2018-11-13T06:15:43.839Z,12.53
2018-11-13T06:18:12.296Z,11.80
2018-11-13T06:20:40.475Z,16.97
2018-11-13T06:23:08.808Z,14.87
2018-11-13T06:25:36.960Z,14.43
2018-11-13T06:28:05.499Z,15.83
2018-11-13T06:30:33.837Z,13.13
2018-11-13T06:33:02.016Z,14.13
2018-11-13T06:35:30.201Z,13.93
2018-11-13T06:37:58.427Z,12.50
2018-11-13T06:40:26.654Z,11.50
2018-11-13T06:42:55.062Z,10.77
2018-11-13T06:45:23.655Z,12.47
2018-11-13T06:47:52.235Z,12.30
2018-11-13T06:50:20.411Z,12.77
2018-11-13T06:52:49.539Z,12.60
2018-11-13T06:55:34.456Z,13.80
2018-11-13T06:58:03.035Z,12.23
2018-11-13T07:00:31.308Z,11.33
2018-11-13T07:02:59.577Z,13.07
2018-11-13T07:05:27.788Z,11.97
2018-11-13T07:07:56.035Z,11.70
2018-11-13T07:10:25.534Z,12.27
2018-11-13T07:12:54.447Z,12.23
2018-11-13T07:15:24.439Z,22.10
2018-11-13T07:17:54.352Z,11.53
2018-11-13T07:20:23.447Z,12.43
2018-11-13T07:22:51.682Z,12.90
2018-11-13T07:25:19.920Z,11.57
2018-11-13T07:27:48.162Z,13.13
2018-11-13T07:30:17.366Z,14.60
2018-11-13T07:32:45.534Z,14.37
2018-11-13T07:35:14.876Z,11.93
2018-11-13T07:37:58.858Z,12.07
2018-11-13T07:40:27.089Z,17.10
2018-11-13T07:42:55.439Z,9.57
2018-11-13T07:45:23.624Z,9.10
2018-11-13T07:47:52.216Z,7.67
2018-11-13T07:50:20.310Z,6.10
2018-11-13T07:52:48.508Z,6.27
2018-11-13T07:55:17.115Z,6.40
2018-11-13T07:57:45.382Z,4.87
2018-11-13T08:00:18.673Z,4.87
2018-11-13T08:02:48.274Z,4.70
2018-11-13T08:05:16.447Z,4.23
2018-11-13T08:07:44.635Z,3.73
2018-11-13T08:10:13.220Z,2.93
2018-11-13T08:12:41.866Z,3.07
2018-11-13T08:15:12.145Z,3.87
2018-11-13T08:17:40.418Z,5.03
2018-11-13T08:20:10.528Z,3.50
2018-11-13T08:22:38.703Z,3.27
2018-11-13T08:25:08.327Z,3.67
2018-11-13T08:27:37.683Z,3.20
2018-11-13T08:30:08.313Z,3.53
2018-11-13T08:32:36.491Z,2.87
2018-11-13T08:35:05.600Z,4.90
2018-11-13T08:37:33.733Z,4.93
2018-11-13T08:40:01.984Z,2.93
2018-11-13T08:42:30.131Z,2.77
2018-11-13T08:44:58.310Z,3.80
2018-11-13T08:47:26.499Z,2.53
2018-11-13T08:49:54.683Z,3.77
2018-11-13T08:52:22.908Z,3.73
2018-11-13T08:54:51.171Z,2.53
2018-11-13T08:59:50.472Z,7.37
2018-11-13T09:02:18.646Z,3.00
2018-11-13T09:04:46.840Z,2.60
2018-11-13T09:07:15.032Z,5.97
2018-11-13T09:09:43.206Z,2.30
2018-11-13T09:12:11.440Z,2.70
2018-11-13T09:14:39.572Z,8.97
2018-11-13T09:17:07.727Z,4.43
2018-11-13T09:19:36.381Z,2.97
2018-11-13T09:22:04.858Z,2.33
2018-11-13T09:24:32.963Z,2.43
2018-11-13T09:27:01.148Z,2.30
2018-11-13T09:29:29.357Z,3.53
2018-11-13T09:31:57.554Z,2.07
2018-11-13T09:34:25.720Z,3.67
2018-11-13T09:36:53.981Z,3.67
2018-11-13T09:39:22.196Z,3.30
2018-11-13T09:41:50.302Z,6.93
2018-11-13T09:44:18.580Z,4.10
2018-11-13T09:46:46.777Z,3.67
2018-11-13T09:49:14.931Z,4.10
2018-11-13T09:51:43.132Z,3.90
2018-11-13T09:54:11.301Z,3.53
2018-11-13T09:56:39.460Z,4.63
2018-11-13T09:59:07.663Z,3.50
2018-11-13T10:01:36.497Z,2.80
2018-11-13T10:04:04.570Z,3.17
2018-11-13T10:06:32.276Z,3.50
2018-11-13T10:09:00.456Z,3.00
2018-11-13T10:11:28.639Z,3.10
2018-11-13T10:13:57.008Z,3.73
2018-11-13T10:16:25.238Z,3.33
2018-11-13T10:18:53.415Z,3.03
2018-11-13T10:21:21.973Z,3.60
2018-11-13T10:23:50.148Z,2.97
2018-11-13T10:26:18.381Z,7.00
2018-11-13T10:28:46.506Z,3.70
2018-11-13T10:31:14.721Z,3.13
2018-11-13T10:33:42.932Z,2.57
2018-11-13T10:36:11.532Z,2.53
2018-11-13T10:38:39.699Z,2.33
2018-11-13T10:41:08.034Z,2.07
2018-11-13T10:43:36.166Z,2.70
2018-11-13T10:46:04.675Z,1.97
2018-11-13T10:48:32.864Z,2.03
2018-11-13T10:51:01.088Z,1.70
2018-11-13T10:53:29.296Z,1.63
2018-11-13T10:55:57.504Z,1.30
2018-11-13T10:58:25.712Z,1.37
2018-11-13T11:00:58.123Z,1.20
2018-11-13T11:03:32.808Z,1.47
2018-11-13T11:06:00.983Z,1.50
2018-11-13T11:08:29.435Z,3.47
2018-11-13T11:10:57.606Z,1.43
2018-11-13T11:13:25.850Z,1.77
2018-11-13T11:15:54.092Z,4.07
2018-11-13T11:18:22.304Z,1.60
2018-11-13T11:20:50.467Z,1.20
2018-11-13T11:23:18.658Z,1.30
2018-11-13T11:25:46.818Z,0.73
2018-11-13T11:28:15.057Z,0.83
2018-11-13T11:30:43.399Z,0.90
2018-11-13T11:33:11.612Z,0.80
2018-11-13T11:35:39.782Z,1.07
2018-11-13T11:38:07.963Z,0.93
2018-11-13T11:40:36.139Z,0.90
2018-11-13T11:43:04.324Z,0.97
2018-11-13T11:45:32.499Z,1.97
2018-11-13T11:48:00.705Z,1.33
2018-11-13T11:50:28.929Z,0.87
2018-11-13T11:52:57.125Z,1.00
2018-11-13T11:55:25.340Z,2.67
2018-11-13T11:57:53.540Z,1.47
2018-11-13T12:00:27.111Z,1.63
2018-11-13T12:02:55.280Z,2.80
2018-11-13T12:05:23.447Z,0.90
2018-11-13T12:07:51.635Z,1.40
2018-11-13T12:10:19.803Z,0.80
2018-11-13T12:12:47.979Z,1.70
2018-11-13T12:15:16.138Z,1.03
2018-11-13T12:17:44.911Z,0.83
2018-11-13T12:20:14.123Z,0.80
2018-11-13T12:22:42.506Z,0.90
2018-11-13T12:25:12.704Z,2.70
2018-11-13T12:27:41.399Z,2.50
2018-11-13T12:30:11.495Z,0.80
2018-11-13T12:32:39.662Z,1.07
2018-11-13T12:35:09.542Z,2.27
2018-11-13T12:37:38.020Z,1.57
2018-11-13T12:40:07.751Z,2.07
2018-11-13T12:42:35.906Z,1.20
2018-11-13T12:45:04.198Z,0.80
2018-11-13T12:47:32.392Z,2.23
2018-11-13T12:50:00.645Z,2.20
2018-11-13T12:52:28.798Z,1.77
2018-11-13T12:54:56.996Z,1.87
2018-11-13T12:57:25.174Z,1.70
2018-11-13T12:59:53.380Z,2.33
2018-11-13T13:02:21.641Z,0.80
2018-11-13T13:04:50.040Z,5.13
2018-11-13T13:07:18.203Z,1.00
2018-11-13T13:09:46.371Z,1.97
2018-11-13T13:12:14.543Z,0.90
2018-11-13T13:14:42.774Z,0.60
2018-11-13T13:17:10.883Z,1.10
2018-11-13T13:19:39.112Z,2.20
2018-11-13T13:22:07.302Z,0.80
2018-11-13T13:24:35.435Z,0.70
2018-11-13T13:27:03.599Z,1.30
2018-11-13T13:29:31.764Z,0.87
2018-11-13T13:31:59.997Z,0.60
2018-11-13T13:34:28.108Z,0.70
2018-11-13T13:36:56.341Z,7.60
2018-11-13T13:39:24.564Z,1.17
2018-11-13T13:41:52.773Z,0.80
2018-11-13T13:44:20.931Z,0.87
2018-11-13T13:46:49.199Z,0.97
2018-11-13T13:49:17.319Z,2.10
2018-11-13T13:51:45.529Z,1.60
2018-11-13T13:54:13.763Z,4.30
2018-11-13T13:56:41.915Z,1.20
2018-11-13T13:59:10.100Z,0.83
2018-11-13T14:01:38.272Z,1.37
2018-11-13T14:04:06.461Z,1.60
2018-11-13T14:06:34.635Z,2.90
2018-11-13T14:09:02.853Z,0.90
2018-11-13T14:11:31.012Z,1.13
2018-11-13T14:13:59.175Z,1.30
2018-11-13T14:16:27.360Z,1.80
2018-11-13T14:18:55.562Z,1.17
2018-11-13T14:21:23.745Z,0.70
2018-11-13T14:23:51.911Z,1.33
2018-11-13T14:26:20.104Z,1.13
2018-11-13T14:28:48.267Z,1.23
2018-11-13T14:31:16.427Z,0.97
2018-11-13T14:33:44.595Z,2.83
2018-11-13T14:36:12.784Z,2.30
2018-11-13T14:38:40.980Z,0.60
2018-11-13T14:41:09.134Z,0.60
2018-11-13T14:43:37.332Z,1.07
2018-11-13T14:46:05.820Z,1.10
2018-11-13T14:48:34.004Z,2.73
2018-11-13T14:51:02.203Z,2.10
2018-11-13T14:53:30.403Z,1.20
2018-11-13T14:55:58.650Z,1.07
2018-11-13T14:58:26.857Z,0.60
2018-11-13T15:00:55.056Z,1.27
2018-11-13T15:03:23.240Z,1.80
2018-11-13T15:05:51.407Z,2.50
2018-11-13T15:08:20.005Z,1.37
2018-11-13T15:10:51.084Z,1.07
2018-11-13T15:13:20.011Z,1.63
2018-11-13T15:15:48.454Z,1.70
2018-11-13T15:18:16.773Z,2.40
2018-11-13T15:20:45.463Z,1.03
2018-11-13T15:23:14.078Z,1.97
2018-11-13T15:25:42.266Z,0.97
2018-11-13T15:28:12.043Z,1.13
2018-11-13T15:30:42.541Z,1.97
2018-11-13T15:33:14.604Z,1.10
2018-11-13T15:35:42.816Z,1.40
2018-11-13T15:38:11.079Z,1.03
2018-11-13T15:40:39.286Z,0.90
2018-11-13T15:43:07.685Z,1.10
2018-11-13T15:45:35.879Z,2.20
2018-11-13T15:48:05.490Z,3.17
2018-11-13T15:50:34.495Z,4.37
2018-11-13T15:53:02.675Z,2.20
2018-11-13T15:55:30.855Z,1.30
2018-11-13T15:57:59.515Z,1.53
2018-11-13T16:00:30.663Z,1.03
2018-11-13T16:03:00.234Z,2.07
2018-11-13T16:05:30.936Z,2.03
2018-11-13T16:08:00.091Z,1.47
2018-11-13T16:10:28.328Z,1.50
2018-11-13T16:12:56.775Z,2.13
2018-11-13T16:15:25.738Z,4.47
2018-11-13T16:17:55.058Z,11.13
2018-11-13T16:20:23.561Z,7.30
2018-11-13T16:22:51.742Z,9.20
2018-11-13T16:25:19.954Z,4.53
2018-11-13T16:27:48.131Z,26.30
2018-11-13T16:30:17.788Z,10.70
2018-11-13T16:32:46.743Z,22.37
2018-11-13T16:35:15.944Z,28.07
2018-11-13T16:37:45.154Z,9.53
2018-11-13T16:40:16.416Z,14.67
2018-11-13T16:42:44.585Z,4.40
2018-11-13T16:45:14.089Z,9.10
2018-11-13T16:47:42.352Z,11.07
2018-11-13T16:50:17.900Z,7.53
2018-11-13T16:52:46.291Z,6.67
2018-11-13T16:55:20.051Z,7.43
2018-11-13T16:57:48.747Z,3.03
2018-11-13T17:00:17.369Z,2.80
2018-11-13T17:02:45.576Z,2.90
2018-11-13T17:05:15.054Z,3.53
2018-11-13T17:07:43.271Z,3.17
2018-11-13T17:10:19.552Z,4.43
2018-11-13T17:12:48.019Z,4.60
2018-11-13T17:15:20.494Z,6.43
2018-11-13T17:17:49.570Z,4.43
2018-11-13T17:20:17.777Z,3.53
2018-11-13T17:22:46.595Z,4.47
2018-11-13T17:25:16.164Z,5.00
2018-11-13T17:27:45.347Z,4.67
2018-11-13T17:30:16.032Z,6.83
2018-11-13T17:32:44.791Z,5.67
2018-11-13T17:35:14.174Z,5.20
2018-11-13T17:37:42.699Z,4.50
2018-11-13T17:40:13.103Z,4.07
2018-11-13T17:42:41.585Z,4.90
2018-11-13T17:45:13.215Z,5.57
2018-11-13T17:47:41.375Z,5.60
2018-11-13T17:50:13.934Z,5.53
2018-11-13T17:52:43.081Z,6.33
2018-11-13T17:55:12.180Z,7.00
2018-11-13T17:57:40.736Z,8.00
2018-11-13T18:00:13.576Z,8.87
2018-11-13T18:02:42.220Z,7.53
2018-11-13T18:05:10.575Z,7.17
2018-11-13T18:07:39.128Z,9.63
2018-11-13T18:10:07.724Z,8.03
2018-11-13T18:12:36.416Z,8.23
2018-11-13T18:15:05.708Z,7.63
2018-11-13T18:17:33.879Z,7.93
2018-11-13T18:20:02.058Z,8.93
2018-11-13T18:22:30.346Z,8.97
2018-11-13T18:24:58.672Z,7.30
2018-11-13T18:27:26.943Z,7.90
2018-11-13T18:29:55.123Z,7.50
2018-11-13T18:32:23.299Z,8.43
2018-11-13T18:34:51.484Z,8.60
2018-11-13T18:37:19.738Z,8.60
2018-11-13T18:39:48.221Z,8.23
2018-11-13T18:42:16.420Z,7.10
2018-11-13T18:44:44.624Z,10.03
2018-11-13T18:47:12.804Z,10.53
2018-11-13T18:49:40.975Z,10.20
2018-11-13T18:52:09.188Z,9.97
2018-11-13T18:54:37.353Z,9.40
2018-11-13T18:57:05.632Z,9.00
2018-11-13T18:59:34.270Z,9.13
2018-11-13T19:02:02.480Z,12.20
2018-11-13T19:04:30.654Z,12.17
2018-11-13T19:06:58.842Z,13.43
2018-11-13T19:09:27.019Z,15.67
2018-11-13T19:11:55.268Z,12.50
2018-11-13T19:14:23.694Z,12.17
2018-11-13T19:16:51.909Z,11.57
2018-11-13T19:19:20.128Z,12.93
2018-11-13T19:21:48.359Z,12.90
2018-11-13T19:24:16.538Z,15.37
2018-11-13T19:26:45.004Z,17.17
2018-11-13T19:29:13.174Z,14.13
2018-11-13T19:31:41.383Z,11.73
2018-11-13T19:34:09.617Z,18.47
2018-11-13T19:36:37.834Z,20.00
2018-11-13T19:39:08.795Z,20.70
2018-11-13T19:41:36.991Z,16.87
2018-11-13T19:44:05.815Z,17.83
2018-11-13T19:46:34.078Z,26.53
2018-11-13T19:49:02.426Z,19.83
2018-11-13T19:51:30.677Z,18.43
2018-11-13T19:53:58.950Z,21.53
2018-11-13T19:56:27.280Z,26.07
2018-11-13T19:58:55.531Z,48.63
2018-11-13T20:01:24.112Z,34.87
2018-11-13T20:03:52.298Z,36.37
2018-11-13T20:06:20.487Z,32.20
2018-11-13T20:08:49.188Z,35.37
2018-11-13T20:11:17.389Z,25.77
2018-11-13T20:13:45.604Z,35.53
2018-11-13T20:16:13.885Z,38.33
2018-11-13T20:18:42.078Z,33.03
2018-11-13T20:21:10.262Z,26.30
2018-11-13T20:23:38.460Z,38.40
2018-11-13T20:26:06.627Z,27.33
2018-11-13T20:28:34.844Z,25.63
2018-11-13T20:31:03.071Z,31.13
2018-11-13T20:33:31.238Z,31.27
2018-11-13T20:35:59.395Z,34.20
2018-11-13T20:38:27.603Z,32.17
2018-11-13T20:40:55.780Z,31.40
2018-11-13T20:43:24.006Z,31.20
2018-11-13T20:45:52.125Z,29.43
2018-11-13T20:48:20.287Z,30.83
2018-11-13T20:50:48.442Z,35.00
2018-11-13T20:53:16.621Z,40.97
2018-11-13T20:55:44.849Z,32.77
2018-11-13T20:58:13.041Z,34.93
2018-11-13T21:00:41.253Z,35.33
2018-11-13T21:03:09.458Z,32.53
2018-11-13T21:05:37.632Z,31.20
2018-11-13T21:08:05.847Z,25.77
2018-11-13T21:10:35.876Z,24.67
2018-11-13T21:13:04.335Z,26.60
2018-11-13T21:15:32.490Z,21.50
2018-11-13T21:18:00.898Z,25.40
2018-11-13T21:20:29.086Z,25.43
2018-11-13T21:22:57.526Z,23.57
2018-11-13T21:25:26.439Z,20.43
2018-11-13T21:27:56.311Z,19.90
2018-11-13T21:30:24.664Z,18.33
2018-11-13T21:32:53.279Z,18.63
2018-11-13T21:35:21.631Z,17.80
2018-11-13T21:37:51.123Z,17.83
2018-11-13T21:40:21.618Z,16.23
2018-11-13T21:42:50.804Z,17.43
2018-11-13T21:45:19.870Z,15.23
2018-11-13T21:47:48.089Z,16.90
2018-11-13T21:52:48.391Z,17.30
2018-11-13T21:55:18.306Z,16.53
2018-11-13T21:57:46.715Z,15.67
2018-11-13T22:00:16.920Z,18.57
2018-11-13T22:02:48.455Z,17.87
2018-11-13T22:05:16.627Z,16.03
2018-11-13T22:07:45.317Z,14.83
2018-11-13T22:10:13.520Z,14.13
2018-11-13T22:12:41.722Z,13.37
2018-11-13T22:15:12.945Z,12.53
2018-11-13T22:17:41.032Z,12.67
2018-11-13T22:20:10.771Z,13.50
2018-11-13T22:22:39.251Z,13.17
2018-11-13T22:25:10.386Z,13.73
2018-11-13T22:27:38.896Z,12.77
2018-11-13T22:30:08.346Z,11.53
2018-11-13T22:32:36.619Z,12.10
2018-11-13T22:35:06.302Z,12.87
2018-11-13T22:37:34.552Z,12.13
2018-11-13T22:40:02.744Z,10.90
2018-11-13T22:42:30.910Z,11.07
2018-11-13T22:44:59.070Z,12.27
2018-11-13T22:47:27.268Z,11.90
2018-11-13T22:49:55.435Z,11.40
2018-11-13T22:52:23.599Z,12.37
2018-11-13T22:54:52.096Z,11.43
2018-11-13T22:57:20.299Z,11.53
2018-11-13T22:59:48.525Z,11.40
2018-11-13T23:02:18.010Z,12.03
2018-11-13T23:04:46.583Z,11.33
2018-11-13T23:07:14.752Z,10.83
2018-11-13T23:09:42.906Z,11.40
2018-11-13T23:12:11.151Z,11.57
2018-11-13T23:14:39.369Z,11.07
2018-11-13T23:17:07.560Z,10.90
2018-11-13T23:19:35.745Z,10.63
2018-11-13T23:22:03.946Z,10.50
2018-11-13T23:24:32.137Z,11.60
2018-11-13T23:27:00.332Z,9.40
2018-11-13T23:29:28.487Z,11.07
2018-11-13T23:31:56.647Z,9.93
2018-11-13T23:34:24.807Z,9.77
2018-11-13T23:36:53.006Z,9.07
2018-11-13T23:39:21.159Z,9.57
2018-11-13T23:41:49.350Z,10.03
2018-11-13T23:44:17.537Z,11.03
2018-11-13T23:46:45.951Z,9.00
2018-11-13T23:49:14.204Z,9.57
2018-11-13T23:51:42.388Z,9.47
2018-11-13T23:54:10.636Z,9.50
2018-11-13T23:56:39.168Z,8.40
2018-11-13T23:59:07.008Z,9.00
